sensor_id;sensor_type;location;lat;lon;timestamp;P1;durP1;ratioP1;P2;durP2;ratioP2
12290;SDS011;6208;48.956;9.076;2023-05-07T00:02:37;5.32;;;4.35;;
12290;SDS011;6208;48.956;9.076;2023-05-07T00:05:22;4.80;;;4.40;;
12290;SDS011;6208;48.956;9.076;2023-05-07T00:08:06;5.57;;;5.07;;
12290;SDS011;6208;48.956;9.076;2023-05-07T00:10:51;5.00;;;4.40;;
12290;SDS011;6208;48.956;9.076;2023-05-07T00:13:35;4.13;;;3.80;;
12290;SDS011;6208;48.956;9.076;2023-05-07T00:16:20;4.00;;;3.70;;
12290;SDS011;6208;48.956;9.076;2023-05-07T00:19:05;4.55;;;4.25;;
12290;SDS011;6208;48.956;9.076;2023-05-07T00:21:49;4.60;;;4.30;;
12290;SDS011;6208;48.956;9.076;2023-05-07T00:24:34;8.65;;;4.07;;
12290;SDS011;6208;48.956;9.076;2023-05-07T00:27:18;4.90;;;4.10;;
12290;SDS011;6208;48.956;9.076;2023-05-07T00:30:03;4.00;;;3.70;;
12290;SDS011;6208;48.956;9.076;2023-05-07T00:32:48;4.57;;;3.47;;
12290;SDS011;6208;48.956;9.076;2023-05-07T00:35:34;4.13;;;3.83;;
12290;SDS011;6208;48.956;9.076;2023-05-07T00:38:19;4.18;;;3.88;;
12290;SDS011;6208;48.956;9.076;2023-05-07T00:41:03;3.92;;;3.50;;
12290;SDS011;6208;48.956;9.076;2023-05-07T00:43:48;3.70;;;3.40;;
12290;SDS011;6208;48.956;9.076;2023-05-07T00:46:35;4.40;;;4.00;;
12290;SDS011;6208;48.956;9.076;2023-05-07T00:49:20;4.72;;;4.32;;
12290;SDS011;6208;48.956;9.076;2023-05-07T00:52:05;4.28;;;3.97;;
12290;SDS011;6208;48.956;9.076;2023-05-07T00:54:50;5.00;;;4.60;;
12290;SDS011;6208;48.956;9.076;2023-05-07T00:57:39;7.22;;;4.22;;
12290;SDS011;6208;48.956;9.076;2023-05-07T01:00:24;4.63;;;4.32;;
12290;SDS011;6208;48.956;9.076;2023-05-07T01:03:09;5.60;;;4.30;;
12290;SDS011;6208;48.956;9.076;2023-05-07T01:05:53;4.90;;;4.50;;
12290;SDS011;6208;48.956;9.076;2023-05-07T01:08:39;4.80;;;4.50;;
12290;SDS011;6208;48.956;9.076;2023-05-07T01:11:24;5.18;;;4.78;;
12290;SDS011;6208;48.956;9.076;2023-05-07T01:14:09;5.28;;;4.88;;
12290;SDS011;6208;48.956;9.076;2023-05-07T01:16:53;4.53;;;4.15;;
12290;SDS011;6208;48.956;9.076;2023-05-07T01:19:38;4.90;;;4.50;;
12290;SDS011;6208;48.956;9.076;2023-05-07T01:22:27;4.72;;;4.32;;
12290;SDS011;6208;48.956;9.076;2023-05-07T01:25:13;4.13;;;3.83;;
12290;SDS011;6208;48.956;9.076;2023-05-07T01:27:59;4.40;;;4.00;;
12290;SDS011;6208;48.956;9.076;2023-05-07T01:30:50;5.25;;;3.90;;
12290;SDS011;6208;48.956;9.076;2023-05-07T01:33:36;4.18;;;3.75;;
12290;SDS011;6208;48.956;9.076;2023-05-07T01:36:22;4.32;;;3.95;;
12290;SDS011;6208;48.956;9.076;2023-05-07T01:39:09;5.20;;;4.60;;
12290;SDS011;6208;48.956;9.076;2023-05-07T01:41:57;4.65;;;4.25;;
12290;SDS011;6208;48.956;9.076;2023-05-07T01:44:43;4.78;;;4.45;;
12290;SDS011;6208;48.956;9.076;2023-05-07T01:47:29;4.70;;;4.40;;
12290;SDS011;6208;48.956;9.076;2023-05-07T01:50:14;5.10;;;4.50;;
12290;SDS011;6208;48.956;9.076;2023-05-07T01:52:59;4.82;;;4.43;;
12290;SDS011;6208;48.956;9.076;2023-05-07T01:55:46;5.45;;;4.90;;
12290;SDS011;6208;48.956;9.076;2023-05-07T01:58:30;5.70;;;4.78;;
12290;SDS011;6208;48.956;9.076;2023-05-07T02:01:15;5.57;;;4.50;;
12290;SDS011;6208;48.956;9.076;2023-05-07T02:03:59;4.95;;;4.55;;
12290;SDS011;6208;48.956;9.076;2023-05-07T02:06:44;4.85;;;4.32;;
12290;SDS011;6208;48.956;9.076;2023-05-07T02:09:28;4.28;;;3.97;;
12290;SDS011;6208;48.956;9.076;2023-05-07T02:12:13;6.55;;;3.95;;
12290;SDS011;6208;48.956;9.076;2023-05-07T02:14:57;4.72;;;3.80;;
12290;SDS011;6208;48.956;9.076;2023-05-07T02:17:58;4.53;;;3.50;;
12290;SDS011;6208;48.956;9.076;2023-05-07T02:20:43;3.90;;;3.60;;
12290;SDS011;6208;48.956;9.076;2023-05-07T02:23:28;4.47;;;4.15;;
12290;SDS011;6208;48.956;9.076;2023-05-07T02:26:12;4.28;;;3.97;;
12290;SDS011;6208;48.956;9.076;2023-05-07T02:28:57;4.60;;;4.20;;
12290;SDS011;6208;48.956;9.076;2023-05-07T02:31:41;4.40;;;4.10;;
12290;SDS011;6208;48.956;9.076;2023-05-07T02:34:26;4.78;;;4.10;;
12290;SDS011;6208;48.956;9.076;2023-05-07T02:37:11;4.00;;;3.70;;
12290;SDS011;6208;48.956;9.076;2023-05-07T02:39:55;3.85;;;3.63;;
12290;SDS011;6208;48.956;9.076;2023-05-07T02:42:40;5.50;;;4.32;;
12290;SDS011;6208;48.956;9.076;2023-05-07T02:45:24;3.95;;;3.65;;
12290;SDS011;6208;48.956;9.076;2023-05-07T02:48:09;4.07;;;3.67;;
12290;SDS011;6208;48.956;9.076;2023-05-07T02:50:53;4.43;;;3.80;;
12290;SDS011;6208;48.956;9.076;2023-05-07T02:53:38;3.95;;;3.65;;
12290;SDS011;6208;48.956;9.076;2023-05-07T02:56:23;4.35;;;3.95;;
12290;SDS011;6208;48.956;9.076;2023-05-07T02:59:07;3.80;;;3.50;;
12290;SDS011;6208;48.956;9.076;2023-05-07T03:01:52;3.88;;;3.63;;
12290;SDS011;6208;48.956;9.076;2023-05-07T03:04:37;3.88;;;3.60;;
12290;SDS011;6208;48.956;9.076;2023-05-07T03:07:22;3.95;;;3.63;;
12290;SDS011;6208;48.956;9.076;2023-05-07T03:10:06;3.90;;;3.60;;
12290;SDS011;6208;48.956;9.076;2023-05-07T03:12:51;3.42;;;3.22;;
12290;SDS011;6208;48.956;9.076;2023-05-07T03:15:35;4.07;;;3.40;;
12290;SDS011;6208;48.956;9.076;2023-05-07T03:18:20;3.58;;;3.28;;
12290;SDS011;6208;48.956;9.076;2023-05-07T03:21:04;3.92;;;3.55;;
12290;SDS011;6208;48.956;9.076;2023-05-07T03:23:49;4.78;;;3.83;;
12290;SDS011;6208;48.956;9.076;2023-05-07T03:26:34;3.88;;;3.58;;
12290;SDS011;6208;48.956;9.076;2023-05-07T03:29:18;4.13;;;3.40;;
12290;SDS011;6208;48.956;9.076;2023-05-07T03:32:03;4.00;;;3.80;;
12290;SDS011;6208;48.956;9.076;2023-05-07T03:34:49;3.78;;;3.53;;
12290;SDS011;6208;48.956;9.076;2023-05-07T03:37:33;4.28;;;2.97;;
12290;SDS011;6208;48.956;9.076;2023-05-07T03:40:18;4.18;;;3.78;;
12290;SDS011;6208;48.956;9.076;2023-05-07T03:43:03;4.72;;;4.30;;
12290;SDS011;6208;48.956;9.076;2023-05-07T03:45:47;4.68;;;4.05;;
12290;SDS011;6208;48.956;9.076;2023-05-07T03:48:32;3.97;;;3.78;;
12290;SDS011;6208;48.956;9.076;2023-05-07T03:51:16;4.63;;;4.22;;
12290;SDS011;6208;48.956;9.076;2023-05-07T03:54:01;4.38;;;4.03;;
12290;SDS011;6208;48.956;9.076;2023-05-07T03:56:45;4.85;;;4.38;;
12290;SDS011;6208;48.956;9.076;2023-05-07T03:59:30;4.93;;;4.50;;
12290;SDS011;6208;48.956;9.076;2023-05-07T04:02:15;5.65;;;4.55;;
12290;SDS011;6208;48.956;9.076;2023-05-07T04:04:59;4.93;;;4.43;;
12290;SDS011;6208;48.956;9.076;2023-05-07T04:07:44;4.65;;;4.25;;
12290;SDS011;6208;48.956;9.076;2023-05-07T04:10:29;8.15;;;4.18;;
12290;SDS011;6208;48.956;9.076;2023-05-07T04:13:13;4.13;;;3.92;;
12290;SDS011;6208;48.956;9.076;2023-05-07T04:15:58;4.72;;;4.35;;
12290;SDS011;6208;48.956;9.076;2023-05-07T04:18:43;4.40;;;4.10;;
12290;SDS011;6208;48.956;9.076;2023-05-07T04:21:27;4.72;;;4.32;;
12290;SDS011;6208;48.956;9.076;2023-05-07T04:24:12;4.30;;;4.00;;
12290;SDS011;6208;48.956;9.076;2023-05-07T04:26:57;4.20;;;3.90;;
12290;SDS011;6208;48.956;9.076;2023-05-07T04:29:42;4.18;;;3.90;;
12290;SDS011;6208;48.956;9.076;2023-05-07T04:32:30;4.50;;;4.10;;
12290;SDS011;6208;48.956;9.076;2023-05-07T04:35:15;4.47;;;4.18;;
12290;SDS011;6208;48.956;9.076;2023-05-07T04:37:59;4.18;;;3.85;;
12290;SDS011;6208;48.956;9.076;2023-05-07T04:40:44;4.72;;;4.25;;
12290;SDS011;6208;48.956;9.076;2023-05-07T04:43:29;4.40;;;3.92;;
12290;SDS011;6208;48.956;9.076;2023-05-07T04:46:13;6.57;;;4.38;;
12290;SDS011;6208;48.956;9.076;2023-05-07T04:48:58;4.32;;;4.03;;
12290;SDS011;6208;48.956;9.076;2023-05-07T04:51:43;4.53;;;3.97;;
12290;SDS011;6208;48.956;9.076;2023-05-07T04:54:27;4.82;;;4.32;;
12290;SDS011;6208;48.956;9.076;2023-05-07T04:57:12;4.75;;;4.32;;
12290;SDS011;6208;48.956;9.076;2023-05-07T04:59:56;8.80;;;4.72;;
12290;SDS011;6208;48.956;9.076;2023-05-07T05:02:41;5.30;;;4.50;;
12290;SDS011;6208;48.956;9.076;2023-05-07T05:05:25;5.10;;;4.68;;
12290;SDS011;6208;48.956;9.076;2023-05-07T05:08:10;5.47;;;4.97;;
12290;SDS011;6208;48.956;9.076;2023-05-07T05:10:55;5.50;;;5.07;;
12290;SDS011;6208;48.956;9.076;2023-05-07T05:13:39;5.90;;;5.43;;
12290;SDS011;6208;48.956;9.076;2023-05-07T05:16:24;5.53;;;5.13;;
12290;SDS011;6208;48.956;9.076;2023-05-07T05:19:09;5.70;;;5.30;;
12290;SDS011;6208;48.956;9.076;2023-05-07T05:21:53;6.93;;;4.97;;
12290;SDS011;6208;48.956;9.076;2023-05-07T05:24:38;4.88;;;4.47;;
12290;SDS011;6208;48.956;9.076;2023-05-07T05:27:23;6.00;;;5.50;;
12290;SDS011;6208;48.956;9.076;2023-05-07T05:30:08;5.47;;;5.03;;
12290;SDS011;6208;48.956;9.076;2023-05-07T05:32:53;5.28;;;4.90;;
12290;SDS011;6208;48.956;9.076;2023-05-07T05:35:37;5.10;;;4.70;;
12290;SDS011;6208;48.956;9.076;2023-05-07T05:38:22;7.43;;;4.93;;
12290;SDS011;6208;48.956;9.076;2023-05-07T05:41:06;5.80;;;5.28;;
12290;SDS011;6208;48.956;9.076;2023-05-07T05:43:51;5.57;;;5.18;;
12290;SDS011;6208;48.956;9.076;2023-05-07T05:46:35;5.38;;;4.97;;
12290;SDS011;6208;48.956;9.076;2023-05-07T05:49:20;5.35;;;4.97;;
12290;SDS011;6208;48.956;9.076;2023-05-07T05:52:05;5.30;;;4.90;;
12290;SDS011;6208;48.956;9.076;2023-05-07T05:54:50;5.38;;;4.88;;
12290;SDS011;6208;48.956;9.076;2023-05-07T05:57:35;4.72;;;4.35;;
12290;SDS011;6208;48.956;9.076;2023-05-07T06:00:20;5.93;;;5.47;;
12290;SDS011;6208;48.956;9.076;2023-05-07T06:03:08;6.10;;;5.35;;
12290;SDS011;6208;48.956;9.076;2023-05-07T06:05:53;5.30;;;4.88;;
12290;SDS011;6208;48.956;9.076;2023-05-07T06:08:38;5.13;;;4.68;;
12290;SDS011;6208;48.956;9.076;2023-05-07T06:11:23;5.05;;;4.65;;
12290;SDS011;6208;48.956;9.076;2023-05-07T06:14:08;5.35;;;4.85;;
12290;SDS011;6208;48.956;9.076;2023-05-07T06:16:53;6.50;;;4.75;;
12290;SDS011;6208;48.956;9.076;2023-05-07T06:19:37;7.43;;;4.97;;
12290;SDS011;6208;48.956;9.076;2023-05-07T06:22:22;4.88;;;4.47;;
12290;SDS011;6208;48.956;9.076;2023-05-07T06:25:07;4.95;;;4.53;;
12290;SDS011;6208;48.956;9.076;2023-05-07T06:27:52;6.25;;;4.78;;
12290;SDS011;6208;48.956;9.076;2023-05-07T06:30:36;5.80;;;4.45;;
12290;SDS011;6208;48.956;9.076;2023-05-07T06:33:21;4.25;;;3.95;;
12290;SDS011;6208;48.956;9.076;2023-05-07T06:36:06;3.85;;;3.55;;
12290;SDS011;6208;48.956;9.076;2023-05-07T06:38:51;4.35;;;4.00;;
12290;SDS011;6208;48.956;9.076;2023-05-07T06:41:35;4.45;;;4.05;;
12290;SDS011;6208;48.956;9.076;2023-05-07T06:44:20;3.95;;;3.75;;
12290;SDS011;6208;48.956;9.076;2023-05-07T06:47:04;5.20;;;4.05;;
12290;SDS011;6208;48.956;9.076;2023-05-07T06:49:49;4.97;;;4.32;;
12290;SDS011;6208;48.956;9.076;2023-05-07T06:52:33;4.57;;;4.25;;
12290;SDS011;6208;48.956;9.076;2023-05-07T06:55:18;4.30;;;4.00;;
12290;SDS011;6208;48.956;9.076;2023-05-07T06:58:03;5.68;;;3.95;;
12290;SDS011;6208;48.956;9.076;2023-05-07T07:00:49;4.68;;;4.35;;
12290;SDS011;6208;48.956;9.076;2023-05-07T07:03:34;7.80;;;4.50;;
12290;SDS011;6208;48.956;9.076;2023-05-07T07:06:18;4.45;;;4.05;;
12290;SDS011;6208;48.956;9.076;2023-05-07T07:09:03;4.40;;;3.90;;
12290;SDS011;6208;48.956;9.076;2023-05-07T07:11:49;3.97;;;3.53;;
12290;SDS011;6208;48.956;9.076;2023-05-07T07:14:33;4.20;;;3.90;;
12290;SDS011;6208;48.956;9.076;2023-05-07T07:17:18;4.45;;;4.05;;
12290;SDS011;6208;48.956;9.076;2023-05-07T07:20:02;4.10;;;3.70;;
12290;SDS011;6208;48.956;9.076;2023-05-07T07:22:47;3.35;;;3.15;;
12290;SDS011;6208;48.956;9.076;2023-05-07T07:25:32;3.50;;;3.30;;
12290;SDS011;6208;48.956;9.076;2023-05-07T07:28:17;3.78;;;3.45;;
12290;SDS011;6208;48.956;9.076;2023-05-07T07:31:01;7.80;;;3.90;;
12290;SDS011;6208;48.956;9.076;2023-05-07T07:33:46;4.30;;;4.00;;
12290;SDS011;6208;48.956;9.076;2023-05-07T07:36:31;3.92;;;3.60;;
12290;SDS011;6208;48.956;9.076;2023-05-07T07:39:15;3.40;;;3.20;;
12290;SDS011;6208;48.956;9.076;2023-05-07T07:42:00;3.55;;;3.33;;
